This is the latest recevied weather packets stored in our database for station/object KPBF. If no packets are shown the sender has not sent any weather packets the latest 1 day(s).
| Time | Temp. | Humidity | Pressure | Rain* | Wind** | Luminosity | Snow |
|---|---|---|---|---|---|---|---|
| 1778087020 | 11.67° C | 81% | 1015.6 hPa | - | - | - | - |
| 1778086423 | 11.67° C | 81% | 1015.2 hPa | - | - | - | - |
| 1778085819 | 11.67° C | 81% | 1015.2 hPa | - | - | - | - |
| 1778085221 | 11.67° C | 81% | 1015.2 hPa | - | - | - | - |
| 1778084620 | 11.67° C | 81% | 1015.2 hPa | - | - | - | - |
| 1778084020 | 11.67° C | 81% | 1015.2 hPa | - | - | - | - |
| 1778081619 | 11.67° C | 87% | 1014.9 hPa | - | - | - | - |
| 1778081020 | 11.67° C | 87% | 1014.9 hPa | - | - | - | - |
| 1778079218 | 11.67° C | 87% | 1014.6 hPa | - | - | - | - |
| 1778076217 | 11.67° C | 87% | 1014.2 hPa | - | - | - | - |
| 1778075016 | 11.67° C | 93% | 1013.9 hPa | - | - | - | - |
| 1778074414 | 11.67° C | 93% | 1013.9 hPa | - | - | - | - |
| 1778073816 | 11.67° C | 93% | 1013.9 hPa | - | - | - | - |
| 1778070816 | 12.78° C | 87% | 1012.9 hPa | - | - | - | - |
| 1778069017 | 12.78° C | 87% | 1012.5 hPa | - | - | - | - |
| 1778068418 | 11.67° C | 93% | 1012.2 hPa | - | - | - | - |
| 1778064817 | 12.78° C | 87% | 1010.8 hPa | - | - | - | - |
| 1778063617 | 12.78° C | 87% | 1010.8 hPa | - | - | - | - |
| 1778062418 | 12.78° C | 87% | 1010.8 hPa | - | - | - | - |
| 1778061220 | 12.78° C | 87% | 1010.8 hPa | - | - | - | - |
| 1778060019 | 12.78° C | 87% | 1010.8 hPa | - | - | - | - |
| 1778059417 | 15° C | 82% | 1010.5 hPa | - | - | - | - |
| 1778058818 | 15° C | 82% | 1010.5 hPa | - | - | - | - |
| 1778057620 | 16.67° C | 82% | 1008.8 hPa | - | - | - | - |
| 1778056418 | 25° C | 78% | 1006.8 hPa | - | - | - | - |
* Rain since midnight (hover to see other rain measurements)
** Current wind speed in m/s (hover to see current wind gust speed)